Terminal Aerodrome Forecast
Issued by NWS Spokane, WA

Home | Current Version | Previous Version | Text Only | Print | Product List | Glossary On
Versions: 1 2 3 4 5 6 7 8 9 10 11 12 13 14 15 16 17 18 19 20 21 22 23
000
FTUS46 KOTX 251730
TAFLWS
TAF
KLWS 251730Z 2518/2618 28003KT P6SM VCSH BKN060 BKN080 OVC100
     FM252000 28008KT P6SM -SHRA BKN050 OVC100
     FM260100 21004KT P6SM SCT080 BKN150
     FM261400 35004KT P6SM SCT080 SCT200=

USA.gov is the U.S. government's official web portal to all federal, state and local government web resources and services.